sensor_id;sensor_type;location;lat;lon;timestamp;pressure;altitude;pressure_sealevel;temperature;humidity
21359;BME280;13506;50.852;20.632;2022-10-31T00:01:28;98605.28;;;12.94;100.00
21359;BME280;13506;50.852;20.632;2022-10-31T00:03:56;98602.66;;;12.94;100.00
21359;BME280;13506;50.852;20.632;2022-10-31T00:06:24;98606.59;;;12.87;100.00
21359;BME280;13506;50.852;20.632;2022-10-31T00:08:54;98611.56;;;12.77;100.00
21359;BME280;13506;50.852;20.632;2022-10-31T00:11:23;98610.72;;;12.77;100.00
21359;BME280;13506;50.852;20.632;2022-10-31T00:13:53;98608.72;;;12.80;100.00
21359;BME280;13506;50.852;20.632;2022-10-31T00:16:24;98609.47;;;12.82;100.00
21359;BME280;13506;50.852;20.632;2022-10-31T00:18:54;98605.28;;;12.80;100.00
21359;BME280;13506;50.852;20.632;2022-10-31T00:21:23;98607.91;;;12.80;100.00
21359;BME280;13506;50.852;20.632;2022-10-31T00:23:51;98612.03;;;12.70;100.00
21359;BME280;13506;50.852;20.632;2022-10-31T00:26:18;98603.34;;;12.69;100.00
21359;BME280;13506;50.852;20.632;2022-10-31T00:28:47;98613.56;;;12.59;100.00
21359;BME280;13506;50.852;20.632;2022-10-31T00:31:17;98608.97;;;12.63;100.00
21359;BME280;13506;50.852;20.632;2022-10-31T00:33:45;98610.56;;;12.51;100.00
21359;BME280;13506;50.852;20.632;2022-10-31T00:36:18;98605.91;;;12.42;100.00
21359;BME280;13506;50.852;20.632;2022-10-31T00:38:46;98614.03;;;12.37;100.00
21359;BME280;13506;50.852;20.632;2022-10-31T00:41:16;98618.31;;;12.10;100.00
21359;BME280;13506;50.852;20.632;2022-10-31T00:43:45;98619.25;;;12.09;100.00
21359;BME280;13506;50.852;20.632;2022-10-31T00:46:17;98610.72;;;11.91;100.00
21359;BME280;13506;50.852;20.632;2022-10-31T00:48:45;98615.59;;;11.67;100.00
21359;BME280;13506;50.852;20.632;2022-10-31T00:51:13;98615.88;;;11.76;100.00
21359;BME280;13506;50.852;20.632;2022-10-31T00:53:41;98613.38;;;11.75;100.00
21359;BME280;13506;50.852;20.632;2022-10-31T00:56:09;98610.78;;;11.45;100.00
21359;BME280;13506;50.852;20.632;2022-10-31T00:58:37;98604.94;;;11.55;100.00
21359;BME280;13506;50.852;20.632;2022-10-31T01:01:07;98606.78;;;11.53;100.00
21359;BME280;13506;50.852;20.632;2022-10-31T01:03:36;98611.72;;;11.44;100.00
21359;BME280;13506;50.852;20.632;2022-10-31T01:06:12;98612.63;;;11.43;100.00
21359;BME280;13506;50.852;20.632;2022-10-31T01:08:40;98618.31;;;11.49;100.00
21359;BME280;13506;50.852;20.632;2022-10-31T01:11:15;98619.25;;;11.48;100.00
21359;BME280;13506;50.852;20.632;2022-10-31T01:13:45;98614.38;;;11.58;100.00
21359;BME280;13506;50.852;20.632;2022-10-31T01:16:15;98615.19;;;11.58;100.00
21359;BME280;13506;50.852;20.632;2022-10-31T01:18:45;98610.47;;;11.65;100.00
21359;BME280;13506;50.852;20.632;2022-10-31T01:21:17;98619.22;;;11.64;100.00
21359;BME280;13506;50.852;20.632;2022-10-31T01:23:49;98622.13;;;11.74;100.00
21359;BME280;13506;50.852;20.632;2022-10-31T01:26:19;98614.13;;;11.77;100.00
21359;BME280;13506;50.852;20.632;2022-10-31T01:28:50;98609.72;;;11.63;100.00
21359;BME280;13506;50.852;20.632;2022-10-31T01:31:20;98613.81;;;11.67;100.00
21359;BME280;13506;50.852;20.632;2022-10-31T01:33:50;98601.91;;;11.63;100.00
21359;BME280;13506;50.852;20.632;2022-10-31T01:36:21;98606.91;;;11.66;100.00
21359;BME280;13506;50.852;20.632;2022-10-31T01:38:52;98601.81;;;11.65;100.00
21359;BME280;13506;50.852;20.632;2022-10-31T01:41:23;98608.53;;;11.69;100.00
21359;BME280;13506;50.852;20.632;2022-10-31T01:43:55;98614.03;;;11.78;100.00
21359;BME280;13506;50.852;20.632;2022-10-31T01:46:27;98608.81;;;11.78;100.00
21359;BME280;13506;50.852;20.632;2022-10-31T01:49:01;98609.41;;;11.84;100.00
21359;BME280;13506;50.852;20.632;2022-10-31T01:51:34;98604.06;;;11.85;100.00
21359;BME280;13506;50.852;20.632;2022-10-31T01:54:07;98614.00;;;11.64;100.00
21359;BME280;13506;50.852;20.632;2022-10-31T01:56:40;98612.75;;;11.86;100.00
21359;BME280;13506;50.852;20.632;2022-10-31T01:59:11;98611.25;;;11.81;100.00
21359;BME280;13506;50.852;20.632;2022-10-31T02:01:41;98616.06;;;11.73;100.00
21359;BME280;13506;50.852;20.632;2022-10-31T02:04:10;98614.09;;;11.63;100.00
21359;BME280;13506;50.852;20.632;2022-10-31T02:06:45;98607.81;;;11.51;100.00
21359;BME280;13506;50.852;20.632;2022-10-31T02:09:16;98610.41;;;11.51;100.00
21359;BME280;13506;50.852;20.632;2022-10-31T02:11:45;98609.03;;;11.59;100.00
21359;BME280;13506;50.852;20.632;2022-10-31T02:14:13;98610.56;;;11.64;100.00
21359;BME280;13506;50.852;20.632;2022-10-31T02:16:42;98610.28;;;11.68;100.00
21359;BME280;13506;50.852;20.632;2022-10-31T02:19:18;98607.97;;;11.78;100.00
21359;BME280;13506;50.852;20.632;2022-10-31T02:21:55;98605.94;;;11.83;100.00
21359;BME280;13506;50.852;20.632;2022-10-31T02:24:54;98604.69;;;11.90;100.00
21359;BME280;13506;50.852;20.632;2022-10-31T02:27:58;98607.84;;;11.95;100.00
21359;BME280;13506;50.852;20.632;2022-10-31T02:30:36;98611.78;;;12.02;100.00
21359;BME280;13506;50.852;20.632;2022-10-31T02:33:21;98609.06;;;12.04;100.00
21359;BME280;13506;50.852;20.632;2022-10-31T02:36:01;98607.19;;;12.06;100.00
21359;BME280;13506;50.852;20.632;2022-10-31T02:38:46;98614.66;;;12.12;100.00
21359;BME280;13506;50.852;20.632;2022-10-31T02:41:40;98620.34;;;12.19;100.00
21359;BME280;13506;50.852;20.632;2022-10-31T02:44:21;98607.22;;;12.20;100.00
21359;BME280;13506;50.852;20.632;2022-10-31T02:46:56;98621.84;;;12.23;100.00
21359;BME280;13506;50.852;20.632;2022-10-31T02:49:34;98620.84;;;12.26;100.00
21359;BME280;13506;50.852;20.632;2022-10-31T02:52:17;98621.66;;;12.26;100.00
21359;BME280;13506;50.852;20.632;2022-10-31T02:54:47;98617.00;;;12.17;100.00
21359;BME280;13506;50.852;20.632;2022-10-31T02:57:19;98618.03;;;12.14;100.00
21359;BME280;13506;50.852;20.632;2022-10-31T02:59:52;98619.72;;;12.15;100.00
21359;BME280;13506;50.852;20.632;2022-10-31T03:02:43;98615.88;;;12.07;100.00
21359;BME280;13506;50.852;20.632;2022-10-31T03:05:27;98627.78;;;11.96;100.00
21359;BME280;13506;50.852;20.632;2022-10-31T03:08:06;98628.91;;;11.92;100.00
21359;BME280;13506;50.852;20.632;2022-10-31T03:10:42;98628.22;;;11.89;100.00
21359;BME280;13506;50.852;20.632;2022-10-31T03:13:19;98633.50;;;11.73;100.00
21359;BME280;13506;50.852;20.632;2022-10-31T03:15:53;98635.81;;;11.77;100.00
21359;BME280;13506;50.852;20.632;2022-10-31T03:18:29;98637.84;;;11.72;100.00
21359;BME280;13506;50.852;20.632;2022-10-31T03:21:04;98631.31;;;11.65;100.00
21359;BME280;13506;50.852;20.632;2022-10-31T03:23:36;98635.50;;;11.68;100.00
21359;BME280;13506;50.852;20.632;2022-10-31T03:26:07;98626.81;;;11.53;100.00
21359;BME280;13506;50.852;20.632;2022-10-31T03:28:41;98631.97;;;11.69;100.00
21359;BME280;13506;50.852;20.632;2022-10-31T03:31:18;98631.72;;;11.73;100.00
21359;BME280;13506;50.852;20.632;2022-10-31T03:33:50;98632.28;;;11.78;100.00
21359;BME280;13506;50.852;20.632;2022-10-31T03:36:21;98631.09;;;11.84;100.00
21359;BME280;13506;50.852;20.632;2022-10-31T03:38:50;98626.69;;;11.85;100.00
21359;BME280;13506;50.852;20.632;2022-10-31T03:41:22;98632.53;;;11.90;100.00
21359;BME280;13506;50.852;20.632;2022-10-31T03:43:57;98631.59;;;11.91;100.00
21359;BME280;13506;50.852;20.632;2022-10-31T03:46:27;98633.28;;;11.92;100.00
21359;BME280;13506;50.852;20.632;2022-10-31T03:48:58;98633.97;;;11.79;100.00
21359;BME280;13506;50.852;20.632;2022-10-31T03:51:38;98638.66;;;11.89;100.00
21359;BME280;13506;50.852;20.632;2022-10-31T03:54:14;98635.22;;;11.88;100.00
21359;BME280;13506;50.852;20.632;2022-10-31T03:56:52;98646.66;;;11.86;100.00
21359;BME280;13506;50.852;20.632;2022-10-31T03:59:26;98645.97;;;11.82;100.00
21359;BME280;13506;50.852;20.632;2022-10-31T04:02:01;98649.25;;;11.86;100.00
21359;BME280;13506;50.852;20.632;2022-10-31T04:04:30;98658.72;;;11.87;100.00
21359;BME280;13506;50.852;20.632;2022-10-31T04:07:00;98658.53;;;11.75;100.00
21359;BME280;13506;50.852;20.632;2022-10-31T04:09:33;98653.47;;;11.72;100.00
21359;BME280;13506;50.852;20.632;2022-10-31T04:12:04;98648.88;;;11.61;100.00
21359;BME280;13506;50.852;20.632;2022-10-31T04:14:53;98651.34;;;11.49;100.00
21359;BME280;13506;50.852;20.632;2022-10-31T04:17:24;98647.66;;;11.53;100.00
21359;BME280;13506;50.852;20.632;2022-10-31T04:19:59;98654.06;;;11.47;100.00
21359;BME280;13506;50.852;20.632;2022-10-31T04:22:29;98654.22;;;11.44;100.00
21359;BME280;13506;50.852;20.632;2022-10-31T04:24:57;98646.25;;;11.47;100.00
21359;BME280;13506;50.852;20.632;2022-10-31T04:27:26;98653.81;;;11.52;100.00
21359;BME280;13506;50.852;20.632;2022-10-31T04:29:57;98647.66;;;11.53;100.00
21359;BME280;13506;50.852;20.632;2022-10-31T04:32:26;98647.84;;;11.50;100.00
21359;BME280;13506;50.852;20.632;2022-10-31T04:34:55;98652.38;;;11.46;100.00
21359;BME280;13506;50.852;20.632;2022-10-31T04:37:22;98646.13;;;11.49;100.00
21359;BME280;13506;50.852;20.632;2022-10-31T04:39:52;98651.75;;;11.57;100.00
21359;BME280;13506;50.852;20.632;2022-10-31T04:42:42;98649.34;;;11.54;100.00
21359;BME280;13506;50.852;20.632;2022-10-31T04:45:10;98648.13;;;11.59;100.00
21359;BME280;13506;50.852;20.632;2022-10-31T04:47:39;98644.97;;;11.54;100.00
21359;BME280;13506;50.852;20.632;2022-10-31T04:50:08;98645.97;;;11.52;100.00
21359;BME280;13506;50.852;20.632;2022-10-31T04:52:39;98646.81;;;11.52;100.00
21359;BME280;13506;50.852;20.632;2022-10-31T04:55:10;98653.03;;;11.50;99.83
21359;BME280;13506;50.852;20.632;2022-10-31T04:57:57;98651.53;;;11.46;100.00
21359;BME280;13506;50.852;20.632;2022-10-31T05:00:26;98656.16;;;11.40;100.00
21359;BME280;13506;50.852;20.632;2022-10-31T05:02:56;98653.56;;;11.40;100.00
21359;BME280;13506;50.852;20.632;2022-10-31T05:05:29;98659.69;;;11.39;100.00
21359;BME280;13506;50.852;20.632;2022-10-31T05:07:58;98656.25;;;11.39;100.00
21359;BME280;13506;50.852;20.632;2022-10-31T05:10:30;98656.34;;;11.37;100.00
21359;BME280;13506;50.852;20.632;2022-10-31T05:13:01;98653.72;;;11.37;100.00
21359;BME280;13506;50.852;20.632;2022-10-31T05:15:49;98656.91;;;11.43;100.00
21359;BME280;13506;50.852;20.632;2022-10-31T05:18:52;98651.53;;;11.46;100.00
21359;BME280;13506;50.852;20.632;2022-10-31T05:21:39;98657.41;;;11.49;100.00
21359;BME280;13506;50.852;20.632;2022-10-31T05:24:08;98661.44;;;11.55;100.00
21359;BME280;13506;50.852;20.632;2022-10-31T05:26:40;98659.31;;;11.61;100.00
21359;BME280;13506;50.852;20.632;2022-10-31T05:29:09;98664.44;;;11.63;100.00
21359;BME280;13506;50.852;20.632;2022-10-31T05:31:39;98669.38;;;11.68;100.00
21359;BME280;13506;50.852;20.632;2022-10-31T05:34:12;98676.19;;;11.70;100.00
21359;BME280;13506;50.852;20.632;2022-10-31T05:36:59;98677.03;;;11.71;100.00
21359;BME280;13506;50.852;20.632;2022-10-31T05:39:27;98676.91;;;11.58;100.00
21359;BME280;13506;50.852;20.632;2022-10-31T05:42:01;98679.31;;;11.61;100.00
21359;BME280;13506;50.852;20.632;2022-10-31T05:44:30;98671.84;;;11.55;100.00
21359;BME280;13506;50.852;20.632;2022-10-31T05:47:11;98671.84;;;11.55;100.00
21359;BME280;13506;50.852;20.632;2022-10-31T05:49:57;98673.69;;;11.53;100.00
21359;BME280;13506;50.852;20.632;2022-10-31T05:52:46;98679.16;;;11.64;100.00
21359;BME280;13506;50.852;20.632;2022-10-31T05:55:29;98670.81;;;11.73;100.00
21359;BME280;13506;50.852;20.632;2022-10-31T05:58:06;98677.16;;;11.84;100.00
21359;BME280;13506;50.852;20.632;2022-10-31T06:00:35;98680.97;;;11.94;100.00
21359;BME280;13506;50.852;20.632;2022-10-31T06:03:09;98684.78;;;12.02;100.00
21359;BME280;13506;50.852;20.632;2022-10-31T06:05:53;98691.41;;;12.08;100.00
21359;BME280;13506;50.852;20.632;2022-10-31T06:08:23;98686.22;;;12.22;100.00
21359;BME280;13506;50.852;20.632;2022-10-31T06:10:51;98694.34;;;12.32;100.00
21359;BME280;13506;50.852;20.632;2022-10-31T06:13:29;98693.78;;;12.41;100.00
21359;BME280;13506;50.852;20.632;2022-10-31T06:16:05;98696.78;;;12.50;100.00
21359;BME280;13506;50.852;20.632;2022-10-31T06:18:37;98694.47;;;12.59;100.00
21359;BME280;13506;50.852;20.632;2022-10-31T06:21:05;98696.66;;;12.66;100.00
21359;BME280;13506;50.852;20.632;2022-10-31T06:23:32;98697.13;;;12.87;100.00
21359;BME280;13506;50.852;20.632;2022-10-31T06:26:19;98694.09;;;13.21;100.00
21359;BME280;13506;50.852;20.632;2022-10-31T06:28:49;98695.41;;;13.56;98.47
21359;BME280;13506;50.852;20.632;2022-10-31T06:31:30;98688.97;;;14.14;98.66
21359;BME280;13506;50.852;20.632;2022-10-31T06:33:58;98696.13;;;14.76;97.36
21359;BME280;13506;50.852;20.632;2022-10-31T06:36:26;98696.56;;;15.44;96.45
21359;BME280;13506;50.852;20.632;2022-10-31T06:38:54;98698.75;;;16.10;94.26
21359;BME280;13506;50.852;20.632;2022-10-31T06:41:24;98693.72;;;16.64;88.39
21359;BME280;13506;50.852;20.632;2022-10-31T06:43:55;98701.59;;;17.21;87.38
21359;BME280;13506;50.852;20.632;2022-10-31T06:46:43;98708.59;;;17.75;85.17
21359;BME280;13506;50.852;20.632;2022-10-31T06:49:32;98714.03;;;18.27;81.59
21359;BME280;13506;50.852;20.632;2022-10-31T06:52:02;98711.66;;;18.76;80.26
21359;BME280;13506;50.852;20.632;2022-10-31T06:54:30;98713.34;;;19.17;78.17
21359;BME280;13506;50.852;20.632;2022-10-31T06:56:59;98705.81;;;19.63;76.26
21359;BME280;13506;50.852;20.632;2022-10-31T06:59:29;98708.88;;;20.17;74.37
21359;BME280;13506;50.852;20.632;2022-10-31T07:02:19;98712.56;;;21.00;72.92
21359;BME280;13506;50.852;20.632;2022-10-31T07:04:48;98719.06;;;21.79;70.29
21359;BME280;13506;50.852;20.632;2022-10-31T07:07:17;98716.56;;;22.31;66.82
21359;BME280;13506;50.852;20.632;2022-10-31T07:09:47;98720.88;;;22.59;67.47
21359;BME280;13506;50.852;20.632;2022-10-31T07:12:17;98725.75;;;22.71;63.92
21359;BME280;13506;50.852;20.632;2022-10-31T07:14:56;98731.28;;;23.12;61.14
21359;BME280;13506;50.852;20.632;2022-10-31T07:17:23;98720.22;;;23.92;57.76
21359;BME280;13506;50.852;20.632;2022-10-31T07:19:55;98718.00;;;24.70;55.51
21359;BME280;13506;50.852;20.632;2022-10-31T07:22:22;98721.66;;;25.25;50.56
21359;BME280;13506;50.852;20.632;2022-10-31T07:24:50;98718.44;;;26.15;53.56
21359;BME280;13506;50.852;20.632;2022-10-31T07:27:54;98728.31;;;26.67;49.98
21359;BME280;13506;50.852;20.632;2022-10-31T07:30:23;98721.81;;;26.47;47.72
21359;BME280;13506;50.852;20.632;2022-10-31T07:32:54;98729.06;;;26.38;47.65
21359;BME280;13506;50.852;20.632;2022-10-31T07:35:27;98729.81;;;26.47;48.86
21359;BME280;13506;50.852;20.632;2022-10-31T07:38:07;98719.53;;;27.18;46.78
21359;BME280;13506;50.852;20.632;2022-10-31T07:40:36;98726.84;;;27.82;44.22
21359;BME280;13506;50.852;20.632;2022-10-31T07:43:04;98718.41;;;28.21;44.82
21359;BME280;13506;50.852;20.632;2022-10-31T07:46:06;98723.22;;;29.37;43.79
21359;BME280;13506;50.852;20.632;2022-10-31T07:48:52;98718.25;;;30.02;41.11
21359;BME280;13506;50.852;20.632;2022-10-31T07:51:39;98718.56;;;31.06;41.11
21359;BME280;13506;50.852;20.632;2022-10-31T07:54:27;98729.41;;;32.08;37.39
21359;BME280;13506;50.852;20.632;2022-10-31T07:56:55;98723.09;;;32.90;38.33
21359;BME280;13506;50.852;20.632;2022-10-31T07:59:23;98722.81;;;33.65;36.58
21359;BME280;13506;50.852;20.632;2022-10-31T08:01:55;98725.09;;;34.34;34.82
21359;BME280;13506;50.852;20.632;2022-10-31T08:04:31;98720.31;;;35.12;35.38
21359;BME280;13506;50.852;20.632;2022-10-31T08:07:17;98726.50;;;35.93;33.60
21359;BME280;13506;50.852;20.632;2022-10-31T08:09:53;98723.66;;;36.34;32.08
21359;BME280;13506;50.852;20.632;2022-10-31T08:12:25;98731.22;;;36.87;32.50
21359;BME280;13506;50.852;20.632;2022-10-31T08:14:53;98726.38;;;37.34;31.75
21359;BME280;13506;50.852;20.632;2022-10-31T08:17:23;98723.56;;;37.73;31.09
21359;BME280;13506;50.852;20.632;2022-10-31T08:19:54;98721.47;;;38.12;30.30
21359;BME280;13506;50.852;20.632;2022-10-31T08:22:28;98729.53;;;38.34;29.12
21359;BME280;13506;50.852;20.632;2022-10-31T08:24:56;98724.03;;;38.61;29.12
21359;BME280;13506;50.852;20.632;2022-10-31T08:27:24;98721.81;;;38.58;28.10
21359;BME280;13506;50.852;20.632;2022-10-31T08:29:53;98718.78;;;39.02;28.32
21359;BME280;13506;50.852;20.632;2022-10-31T08:32:24;98721.25;;;39.09;28.14
21359;BME280;13506;50.852;20.632;2022-10-31T08:34:52;98720.66;;;38.97;27.67
21359;BME280;13506;50.852;20.632;2022-10-31T08:37:39;98725.69;;;39.30;28.24
21359;BME280;13506;50.852;20.632;2022-10-31T08:40:08;98723.06;;;39.46;27.34
21359;BME280;13506;50.852;20.632;2022-10-31T08:42:37;98723.25;;;39.39;27.09
21359;BME280;13506;50.852;20.632;2022-10-31T08:45:06;98728.41;;;39.25;27.62
21359;BME280;13506;50.852;20.632;2022-10-31T08:47:36;98726.97;;;39.07;28.06
21359;BME280;13506;50.852;20.632;2022-10-31T08:50:05;98729.03;;;38.90;27.92
21359;BME280;13506;50.852;20.632;2022-10-31T08:52:34;98724.84;;;38.67;28.02
21359;BME280;13506;50.852;20.632;2022-10-31T08:55:05;98729.53;;;38.39;28.56
21359;BME280;13506;50.852;20.632;2022-10-31T08:57:45;98722.34;;;38.23;28.66
21359;BME280;13506;50.852;20.632;2022-10-31T09:00:13;98731.78;;;38.10;28.87
21359;BME280;13506;50.852;20.632;2022-10-31T09:03:17;98739.44;;;37.86;28.82
21359;BME280;13506;50.852;20.632;2022-10-31T09:05:46;98740.66;;;37.73;29.38
21359;BME280;13506;50.852;20.632;2022-10-31T09:08:15;98742.41;;;37.57;29.55
21359;BME280;13506;50.852;20.632;2022-10-31T09:10:44;98741.06;;;37.38;30.21
21359;BME280;13506;50.852;20.632;2022-10-31T09:13:17;98743.66;;;37.27;29.63
21359;BME280;13506;50.852;20.632;2022-10-31T09:16:11;98740.03;;;37.00;30.17
21359;BME280;13506;50.852;20.632;2022-10-31T09:18:40;98738.81;;;36.85;30.02
21359;BME280;13506;50.852;20.632;2022-10-31T09:21:08;98744.75;;;36.48;30.20
21359;BME280;13506;50.852;20.632;2022-10-31T09:23:36;98746.00;;;36.24;31.21
21359;BME280;13506;50.852;20.632;2022-10-31T09:26:04;98745.09;;;35.73;31.36
21359;BME280;13506;50.852;20.632;2022-10-31T09:28:55;98748.03;;;35.42;32.11
21359;BME280;13506;50.852;20.632;2022-10-31T09:31:24;98746.69;;;35.16;32.60
21359;BME280;13506;50.852;20.632;2022-10-31T09:34:04;98745.38;;;35.07;33.36
21359;BME280;13506;50.852;20.632;2022-10-31T09:36:38;98744.56;;;35.06;32.85
21359;BME280;13506;50.852;20.632;2022-10-31T09:39:09;98748.44;;;35.11;32.84
21359;BME280;13506;50.852;20.632;2022-10-31T09:41:57;98762.56;;;35.01;33.49
21359;BME280;13506;50.852;20.632;2022-10-31T09:44:43;98759.19;;;34.94;33.34
21359;BME280;13506;50.852;20.632;2022-10-31T09:47:36;98757.19;;;34.89;33.55
21359;BME280;13506;50.852;20.632;2022-10-31T09:50:39;98760.56;;;34.96;33.64
21359;BME280;13506;50.852;20.632;2022-10-31T09:53:40;98761.78;;;34.89;33.58
21359;BME280;13506;50.852;20.632;2022-10-31T09:56:15;98760.59;;;34.84;33.59
21359;BME280;13506;50.852;20.632;2022-10-31T09:58:47;98754.94;;;34.86;33.51
21359;BME280;13506;50.852;20.632;2022-10-31T10:01:39;98758.69;;;34.97;34.09
21359;BME280;13506;50.852;20.632;2022-10-31T10:04:33;98759.28;;;34.99;33.63
21359;BME280;13506;50.852;20.632;2022-10-31T10:07:22;98766.78;;;34.97;34.06
21359;BME280;13506;50.852;20.632;2022-10-31T10:10:20;98760.13;;;34.99;33.68
21359;BME280;13506;50.852;20.632;2022-10-31T10:13:55;98760.13;;;34.99;34.14
21359;BME280;13506;50.852;20.632;2022-10-31T10:16:40;98754.00;;;34.92;34.57
21359;BME280;13506;50.852;20.632;2022-10-31T10:19:25;98759.19;;;34.94;34.39
21359;BME280;13506;50.852;20.632;2022-10-31T10:22:02;98760.94;;;34.88;34.06
21359;BME280;13506;50.852;20.632;2022-10-31T10:24:49;98754.25;;;34.91;34.99
21359;BME280;13506;50.852;20.632;2022-10-31T10:27:30;98740.16;;;34.77;34.93
21359;BME280;13506;50.852;20.632;2022-10-31T10:30:12;98751.41;;;34.85;34.24
21359;BME280;13506;50.852;20.632;2022-10-31T10:32:45;98745.44;;;34.83;34.49
21359;BME280;13506;50.852;20.632;2022-10-31T10:35:24;98746.63;;;34.64;34.28
21359;BME280;13506;50.852;20.632;2022-10-31T10:37:59;98737.69;;;34.63;34.27
21359;BME280;13506;50.852;20.632;2022-10-31T10:40:30;98732.47;;;34.50;34.18
21359;BME280;13506;50.852;20.632;2022-10-31T10:43:16;98737.53;;;34.35;35.07
21359;BME280;13506;50.852;20.632;2022-10-31T10:46:13;98732.22;;;34.16;35.02
21359;BME280;13506;50.852;20.632;2022-10-31T10:49:14;98729.88;;;33.66;34.96
21359;BME280;13506;50.852;20.632;2022-10-31T10:51:47;98731.78;;;33.29;35.76
21359;BME280;13506;50.852;20.632;2022-10-31T10:54:48;98733.13;;;32.82;36.34
21359;BME280;13506;50.852;20.632;2022-10-31T10:57:53;98725.66;;;32.16;37.70
21359;BME280;13506;50.852;20.632;2022-10-31T11:00:25;98724.78;;;31.52;38.63
21359;BME280;13506;50.852;20.632;2022-10-31T11:02:54;98730.78;;;31.02;39.95
21359;BME280;13506;50.852;20.632;2022-10-31T11:05:30;98732.69;;;30.68;40.21
21359;BME280;13506;50.852;20.632;2022-10-31T11:08:00;98730.84;;;30.29;40.39
21359;BME280;13506;50.852;20.632;2022-10-31T11:10:28;98718.44;;;30.08;41.37
21359;BME280;13506;50.852;20.632;2022-10-31T11:13:21;98719.88;;;29.83;41.65
21359;BME280;13506;50.852;20.632;2022-10-31T11:15:56;98712.97;;;29.61;41.88
21359;BME280;13506;50.852;20.632;2022-10-31T11:18:28;98719.31;;;29.40;42.63
21359;BME280;13506;50.852;20.632;2022-10-31T11:20:59;98715.59;;;29.28;43.30
21359;BME280;13506;50.852;20.632;2022-10-31T11:23:30;98714.25;;;29.10;42.96
21359;BME280;13506;50.852;20.632;2022-10-31T11:26:01;98712.06;;;28.86;43.90
21359;BME280;13506;50.852;20.632;2022-10-31T11:28:32;98704.78;;;28.73;43.81
21359;BME280;13506;50.852;20.632;2022-10-31T11:31:08;98705.69;;;28.52;44.12
21359;BME280;13506;50.852;20.632;2022-10-31T11:33:39;98701.44;;;28.42;44.30
21359;BME280;13506;50.852;20.632;2022-10-31T11:36:18;98706.84;;;28.21;45.64
21359;BME280;13506;50.852;20.632;2022-10-31T11:38:49;98701.59;;;28.06;46.59
21359;BME280;13506;50.852;20.632;2022-10-31T11:41:19;98702.06;;;27.88;47.13
21359;BME280;13506;50.852;20.632;2022-10-31T11:43:56;98704.25;;;27.85;46.51
21359;BME280;13506;50.852;20.632;2022-10-31T11:46:33;98699.84;;;27.77;46.43
21359;BME280;13506;50.852;20.632;2022-10-31T11:49:02;98700.00;;;27.69;46.00
21359;BME280;13506;50.852;20.632;2022-10-31T11:51:33;98690.31;;;27.68;46.07
21359;BME280;13506;50.852;20.632;2022-10-31T11:54:04;98700.13;;;27.60;46.40
21359;BME280;13506;50.852;20.632;2022-10-31T11:56:40;98697.81;;;27.57;46.28
21359;BME280;13506;50.852;20.632;2022-10-31T11:59:25;98703.53;;;27.54;45.89
21359;BME280;13506;50.852;20.632;2022-10-31T12:01:55;98699.88;;;27.40;46.53
21359;BME280;13506;50.852;20.632;2022-10-31T12:04:35;98699.19;;;27.32;46.28
21359;BME280;13506;50.852;20.632;2022-10-31T12:07:04;98700.38;;;27.29;46.72
21359;BME280;13506;50.852;20.632;2022-10-31T12:09:35;98694.00;;;27.15;46.96
21359;BME280;13506;50.852;20.632;2022-10-31T12:12:45;98694.22;;;27.14;47.82
21359;BME280;13506;50.852;20.632;2022-10-31T12:15:31;98694.00;;;27.15;47.73
21359;BME280;13506;50.852;20.632;2022-10-31T12:18:28;98692.28;;;27.08;47.64
21359;BME280;13506;50.852;20.632;2022-10-31T12:21:24;98695.16;;;27.06;48.02
21359;BME280;13506;50.852;20.632;2022-10-31T12:24:05;98684.06;;;27.09;47.91
21359;BME280;13506;50.852;20.632;2022-10-31T12:26:42;98679.84;;;27.00;48.46
21359;BME280;13506;50.852;20.632;2022-10-31T12:29:31;98692.75;;;26.96;48.36
21359;BME280;13506;50.852;20.632;2022-10-31T12:32:27;98692.31;;;26.93;48.48
21359;BME280;13506;50.852;20.632;2022-10-31T12:35:23;98683.38;;;26.86;48.02
21359;BME280;13506;50.852;20.632;2022-10-31T12:38:12;98689.91;;;26.83;48.82
21359;BME280;13506;50.852;20.632;2022-10-31T12:41:03;98686.50;;;26.74;49.03
21359;BME280;13506;50.852;20.632;2022-10-31T12:43:44;98690.09;;;26.67;49.36
21359;BME280;13506;50.852;20.632;2022-10-31T12:46:25;98678.69;;;26.58;49.55
21359;BME280;13506;50.852;20.632;2022-10-31T12:49:42;98686.56;;;26.51;49.58
21359;BME280;13506;50.852;20.632;2022-10-31T12:52:37;98684.53;;;26.38;49.57
21359;BME280;13506;50.852;20.632;2022-10-31T12:55:25;98689.59;;;26.33;50.49
21359;BME280;13506;50.852;20.632;2022-10-31T12:58:03;98684.91;;;26.35;50.08
21359;BME280;13506;50.852;20.632;2022-10-31T13:00:37;98682.88;;;26.23;50.51
21359;BME280;13506;50.852;20.632;2022-10-31T13:03:25;98684.41;;;26.17;50.86
21359;BME280;13506;50.852;20.632;2022-10-31T13:06:02;98683.75;;;26.15;50.49
21359;BME280;13506;50.852;20.632;2022-10-31T13:08:38;98691.66;;;26.08;50.67
21359;BME280;13506;50.852;20.632;2022-10-31T13:11:14;98684.16;;;25.89;50.52
21359;BME280;13506;50.852;20.632;2022-10-31T13:13:58;98691.88;;;25.75;50.71
21359;BME280;13506;50.852;20.632;2022-10-31T13:16:35;98687.75;;;25.73;51.25
21359;BME280;13506;50.852;20.632;2022-10-31T13:19:16;98688.63;;;25.65;51.65
21359;BME280;13506;50.852;20.632;2022-10-31T13:21:57;98685.28;;;25.63;52.18
21359;BME280;13506;50.852;20.632;2022-10-31T13:24:34;98694.16;;;25.64;51.93
21359;BME280;13506;50.852;20.632;2022-10-31T13:27:13;98685.50;;;25.62;52.27
21359;BME280;13506;50.852;20.632;2022-10-31T13:29:50;98680.16;;;25.62;52.13
21359;BME280;13506;50.852;20.632;2022-10-31T13:32:24;98686.97;;;25.64;52.37